createdAt,value
2024-02-23T00:00:19.021Z,13.96
2024-02-23T00:01:21.588Z,13.91
2024-02-23T00:02:24.259Z,13.93
2024-02-23T00:03:27.269Z,14.01
2024-02-23T00:04:29.877Z,14.00
2024-02-23T00:05:33.112Z,14.10
2024-02-23T00:06:35.821Z,14.14
2024-02-23T00:07:38.376Z,14.07
2024-02-23T00:08:42.641Z,14.07
2024-02-23T00:09:45.210Z,14.13
2024-02-23T00:10:47.954Z,14.16
2024-02-23T00:11:50.924Z,14.10
2024-02-23T00:12:53.617Z,13.93
2024-02-23T00:13:56.214Z,13.86
2024-02-23T00:14:59.033Z,13.92
2024-02-23T00:16:01.684Z,13.95
2024-02-23T00:17:04.447Z,14.00
2024-02-23T00:18:07.934Z,14.07
2024-02-23T00:19:11.073Z,14.13
2024-02-23T00:20:13.838Z,14.16
2024-02-23T00:21:16.440Z,14.08
2024-02-23T00:22:18.968Z,14.16
2024-02-23T00:23:21.657Z,14.08
2024-02-23T00:24:24.353Z,13.97
2024-02-23T00:25:26.899Z,13.94
2024-02-23T00:26:30.740Z,13.97
2024-02-23T00:27:33.352Z,14.02
2024-02-23T00:28:36.131Z,13.94
2024-02-23T00:29:38.714Z,14.04
2024-02-23T00:30:41.242Z,14.00
2024-02-23T00:31:46.509Z,13.98
2024-02-23T00:32:49.258Z,13.89
2024-02-23T00:33:51.834Z,13.92
2024-02-23T00:34:54.440Z,13.96
2024-02-23T00:35:57.050Z,14.02
2024-02-23T00:36:59.633Z,14.03
2024-02-23T00:38:02.223Z,14.04
2024-02-23T00:39:04.772Z,14.07
2024-02-23T00:40:08.291Z,14.12
2024-02-23T00:41:10.951Z,14.04
2024-02-23T00:42:13.506Z,14.13
2024-02-23T00:43:16.123Z,14.17
2024-02-23T00:44:18.819Z,14.13
2024-02-23T00:45:21.451Z,14.06
2024-02-23T00:46:24.014Z,14.09
2024-02-23T00:47:28.502Z,14.07
2024-02-23T00:48:31.392Z,14.13
2024-02-23T00:49:34.006Z,14.06
2024-02-23T00:50:36.667Z,13.96
2024-02-23T00:51:39.230Z,14.00
2024-02-23T00:52:42.345Z,13.93
2024-02-23T00:53:44.912Z,14.06
2024-02-23T00:54:47.456Z,14.06
2024-02-23T00:55:50.149Z,14.11
2024-02-23T00:56:57.261Z,14.13
2024-02-23T00:58:00.452Z,14.18
2024-02-23T00:59:03.171Z,14.20
2024-02-23T01:00:07.179Z,14.11
2024-02-23T01:01:09.774Z,14.06
2024-02-23T01:02:12.374Z,14.07
2024-02-23T01:03:15.059Z,14.02
2024-02-23T01:04:17.584Z,14.05
2024-02-23T01:05:20.315Z,14.11
2024-02-23T01:06:23.028Z,14.07
2024-02-23T01:07:27.352Z,14.10
2024-02-23T01:08:31.205Z,14.07
2024-02-23T01:09:33.776Z,13.94
2024-02-23T01:10:36.446Z,14.01
2024-02-23T01:11:39.234Z,14.04
2024-02-23T01:12:41.899Z,14.04
2024-02-23T01:13:44.467Z,13.98
2024-02-23T01:14:49.470Z,14.00
2024-02-23T01:15:55.119Z,13.93
2024-02-23T01:16:57.563Z,13.98
2024-02-23T01:18:00.059Z,14.11
2024-02-23T01:19:04.214Z,14.11
2024-02-23T01:20:07.709Z,14.19
2024-02-23T01:21:10.212Z,14.20
2024-02-23T01:22:12.945Z,14.15
2024-02-23T01:23:15.633Z,14.07
2024-02-23T01:24:18.351Z,14.08
2024-02-23T01:25:21.033Z,14.05
2024-02-23T01:26:23.660Z,13.92
2024-02-23T01:27:26.291Z,14.00
2024-02-23T01:28:28.844Z,14.12
2024-02-23T01:29:31.449Z,14.15
2024-02-23T01:30:34.081Z,14.15
2024-02-23T01:31:36.679Z,14.08
2024-02-23T01:32:40.344Z,14.11
2024-02-23T01:33:43.277Z,14.14
2024-02-23T01:34:45.938Z,14.17
2024-02-23T01:35:48.725Z,14.21
2024-02-23T01:36:51.325Z,14.25
2024-02-23T01:37:54.935Z,14.28
2024-02-23T01:38:57.534Z,14.23
2024-02-23T01:40:01.552Z,14.30
2024-02-23T01:41:05.896Z,14.22
2024-02-23T01:42:09.809Z,14.25
2024-02-23T01:43:12.416Z,14.27
2024-02-23T01:44:16.632Z,14.20
2024-02-23T01:45:19.386Z,14.28
2024-02-23T01:46:22.818Z,14.25
2024-02-23T01:47:26.540Z,14.28
2024-02-23T01:48:29.439Z,14.15
2024-02-23T01:49:35.010Z,14.07
2024-02-23T01:50:38.625Z,14.04
2024-02-23T01:51:41.488Z,14.05
2024-02-23T01:52:44.434Z,14.01
2024-02-23T01:53:47.165Z,14.11
2024-02-23T01:54:49.941Z,14.07
2024-02-23T01:55:54.720Z,14.00
2024-02-23T01:57:03.418Z,14.01
2024-02-23T01:58:09.216Z,14.04
2024-02-23T01:59:13.288Z,14.15
2024-02-23T02:00:19.516Z,14.21
2024-02-23T02:01:28.691Z,14.16
2024-02-23T02:02:32.017Z,14.22
2024-02-23T02:03:34.837Z,14.26
2024-02-23T02:04:37.432Z,14.30
2024-02-23T02:05:40.319Z,14.29
2024-02-23T02:06:43.399Z,14.26
2024-02-23T02:07:48.382Z,14.23
2024-02-23T02:08:51.181Z,14.21
2024-02-23T02:09:53.838Z,14.15
2024-02-23T02:10:56.537Z,14.17
2024-02-23T02:11:59.203Z,14.07
2024-02-23T02:13:06.611Z,14.02
2024-02-23T02:14:09.273Z,14.15
2024-02-23T02:15:11.879Z,14.17
2024-02-23T02:16:14.480Z,14.12
2024-02-23T02:17:17.125Z,14.07
2024-02-23T02:18:20.212Z,14.03
2024-02-23T02:19:22.867Z,13.91
2024-02-23T02:20:30.037Z,13.87
2024-02-23T02:21:34.233Z,13.89
2024-02-23T02:22:36.890Z,14.02
2024-02-23T02:23:39.741Z,13.96
2024-02-23T02:24:44.821Z,13.93
2024-02-23T02:26:02.353Z,13.90
2024-02-23T02:27:07.767Z,13.91
2024-02-23T02:28:10.312Z,14.01
2024-02-23T02:29:12.951Z,14.01
2024-02-23T02:30:15.969Z,14.02
2024-02-23T02:31:18.549Z,14.05
2024-02-23T02:32:21.306Z,14.05
2024-02-23T02:33:24.234Z,14.13
2024-02-23T02:34:26.918Z,14.04
2024-02-23T02:35:29.743Z,14.10
2024-02-23T02:36:32.308Z,14.18
2024-02-23T02:37:35.623Z,14.20
2024-02-23T02:38:38.855Z,14.10
2024-02-23T02:39:41.426Z,14.09
2024-02-23T02:40:44.313Z,14.06
2024-02-23T02:41:48.864Z,14.09
2024-02-23T02:42:51.483Z,14.05
2024-02-23T02:43:54.050Z,13.93
2024-02-23T02:44:56.725Z,14.10
2024-02-23T02:46:00.269Z,14.08
2024-02-23T02:47:02.909Z,14.07
2024-02-23T02:48:06.026Z,13.93
2024-02-23T02:49:08.849Z,13.97
2024-02-23T02:50:11.484Z,14.05
2024-02-23T02:51:14.043Z,14.10
2024-02-23T02:52:16.581Z,14.11
2024-02-23T02:53:20.339Z,14.16
2024-02-23T02:54:23.014Z,14.23
2024-02-23T02:55:25.514Z,14.23
2024-02-23T02:56:28.173Z,14.21
2024-02-23T02:57:31.124Z,14.16
2024-02-23T02:58:33.678Z,14.23
2024-02-23T02:59:37.542Z,14.28
2024-02-23T03:00:40.779Z,14.21
2024-02-23T03:01:43.578Z,14.02
2024-02-23T03:02:46.118Z,14.15
2024-02-23T03:03:48.913Z,14.02
2024-02-23T03:04:52.463Z,14.11
2024-02-23T03:05:55.105Z,14.07
2024-02-23T03:06:57.705Z,14.16
2024-02-23T03:08:00.326Z,14.04
2024-02-23T03:09:03.958Z,14.17
2024-02-23T03:10:07.441Z,14.08
2024-02-23T03:11:10.160Z,14.15
2024-02-23T03:12:12.820Z,14.08
2024-02-23T03:13:15.439Z,14.14
2024-02-23T03:14:19.591Z,14.06
2024-02-23T03:15:22.258Z,14.12
2024-02-23T03:16:27.078Z,14.14
2024-02-23T03:17:30.503Z,14.11
2024-02-23T03:18:33.132Z,14.06
2024-02-23T03:19:35.934Z,14.08
2024-02-23T03:20:38.608Z,14.15
2024-02-23T03:21:41.165Z,14.15
2024-02-23T03:22:43.772Z,14.09
2024-02-23T03:23:46.378Z,14.11
2024-02-23T03:24:48.944Z,14.11
2024-02-23T03:25:51.521Z,14.18
2024-02-23T03:26:54.405Z,14.21
2024-02-23T03:27:56.999Z,14.29
2024-02-23T03:28:59.589Z,14.22
2024-02-23T03:30:02.213Z,14.18
2024-02-23T03:31:04.808Z,14.18
2024-02-23T03:32:08.494Z,14.24
2024-02-23T03:33:11.311Z,14.12
2024-02-23T03:34:14.377Z,14.07
2024-02-23T03:35:17.029Z,14.11
2024-02-23T03:36:19.640Z,14.14
2024-02-23T03:37:22.213Z,14.04
2024-02-23T03:38:24.786Z,13.97
2024-02-23T03:39:27.493Z,14.04
2024-02-23T03:40:30.140Z,14.05
2024-02-23T03:41:32.784Z,13.94
2024-02-23T03:42:35.940Z,14.02
2024-02-23T03:43:39.518Z,13.96
2024-02-23T03:44:43.902Z,14.07
2024-02-23T03:45:46.492Z,14.05
2024-02-23T03:46:49.035Z,14.08
2024-02-23T03:47:51.730Z,14.10
2024-02-23T03:48:54.367Z,14.16
2024-02-23T03:49:57.039Z,14.04
2024-02-23T03:50:59.708Z,14.13
2024-02-23T03:52:02.842Z,14.15
2024-02-23T03:53:05.580Z,14.19
2024-02-23T03:54:08.303Z,14.17
2024-02-23T03:55:11.045Z,14.11
2024-02-23T03:56:14.112Z,14.14
2024-02-23T03:57:16.653Z,14.19
2024-02-23T03:58:19.215Z,14.23
2024-02-23T03:59:21.890Z,14.23
2024-02-23T04:00:24.484Z,14.28
2024-02-23T04:01:26.994Z,14.26
2024-02-23T04:02:30.359Z,14.25
2024-02-23T04:03:33.000Z,14.29
2024-02-23T04:04:35.789Z,14.30
2024-02-23T04:05:38.527Z,14.33
2024-02-23T04:06:41.191Z,14.34
2024-02-23T04:07:43.949Z,14.33
2024-02-23T04:08:47.652Z,14.33
2024-02-23T04:09:53.756Z,14.34
2024-02-23T04:10:56.872Z,14.34
2024-02-23T04:11:59.785Z,14.33
2024-02-23T04:13:02.876Z,14.25
2024-02-23T04:14:06.494Z,14.26
2024-02-23T04:15:09.767Z,14.29
2024-02-23T04:16:12.314Z,14.31
2024-02-23T04:17:15.209Z,14.35
2024-02-23T04:18:17.784Z,14.38
2024-02-23T04:19:20.337Z,14.35
2024-02-23T04:20:23.046Z,14.36
2024-02-23T04:21:25.587Z,14.30
2024-02-23T04:22:28.118Z,14.20
2024-02-23T04:23:31.699Z,14.22
2024-02-23T04:24:34.297Z,14.26
2024-02-23T04:25:36.925Z,14.28
2024-02-23T04:26:39.568Z,14.23
2024-02-23T04:27:42.331Z,14.17
2024-02-23T04:28:44.853Z,14.16
2024-02-23T04:29:47.474Z,14.14
2024-02-23T04:30:50.469Z,14.08
2024-02-23T04:31:53.079Z,14.19
2024-02-23T04:32:55.710Z,14.19
2024-02-23T04:33:58.307Z,14.13
2024-02-23T04:35:00.891Z,14.11
2024-02-23T04:36:04.906Z,14.04
2024-02-23T04:37:07.541Z,14.06
2024-02-23T04:38:10.152Z,14.16
2024-02-23T04:39:12.704Z,14.15
2024-02-23T04:40:15.489Z,14.19
2024-02-23T04:41:24.713Z,14.19
2024-02-23T04:42:27.920Z,14.20
2024-02-23T04:43:30.492Z,14.14
2024-02-23T04:44:33.183Z,14.19
2024-02-23T04:45:35.870Z,14.15
2024-02-23T04:46:38.471Z,14.18
2024-02-23T04:47:41.833Z,14.18
2024-02-23T04:48:44.918Z,14.20
2024-02-23T04:49:47.520Z,14.18
2024-02-23T04:50:50.072Z,14.19
2024-02-23T04:51:52.616Z,14.24
2024-02-23T04:52:55.237Z,14.24
2024-02-23T04:53:57.915Z,14.24
2024-02-23T04:55:00.583Z,14.26
2024-02-23T04:56:03.414Z,14.21
2024-02-23T04:57:06.093Z,14.21
2024-02-23T04:58:08.690Z,14.25
2024-02-23T04:59:11.396Z,14.27
2024-02-23T05:00:14.374Z,14.32
2024-02-23T05:01:16.921Z,14.35
2024-02-23T05:02:19.887Z,14.34
2024-02-23T05:03:22.711Z,14.36
2024-02-23T05:04:25.338Z,14.39
2024-02-23T05:05:27.942Z,14.40
2024-02-23T05:06:31.234Z,14.42
2024-02-23T05:07:34.394Z,14.46
2024-02-23T05:08:37.054Z,14.47
2024-02-23T05:09:41.709Z,14.48
2024-02-23T05:10:44.330Z,14.49
2024-02-23T05:11:48.516Z,14.45
2024-02-23T05:12:51.705Z,14.33
2024-02-23T05:13:54.778Z,14.39
2024-02-23T05:14:57.430Z,14.35
2024-02-23T05:16:00.124Z,14.37
2024-02-23T05:17:02.748Z,14.40
2024-02-23T05:18:06.449Z,14.40
2024-02-23T05:19:09.115Z,14.42
2024-02-23T05:20:12.680Z,14.42
2024-02-23T05:21:18.466Z,14.41
2024-02-23T05:22:21.059Z,14.42
2024-02-23T05:23:23.666Z,14.45
2024-02-23T05:24:26.882Z,14.42
2024-02-23T05:25:29.482Z,14.30
2024-02-23T05:26:32.079Z,14.28
2024-02-23T05:27:34.670Z,14.23
2024-02-23T05:28:37.200Z,14.12
2024-02-23T05:29:39.819Z,14.14
2024-02-23T05:30:42.452Z,14.12
2024-02-23T05:31:51.424Z,14.13
2024-02-23T05:32:54.396Z,14.07
2024-02-23T05:33:57.031Z,14.04
2024-02-23T05:34:59.715Z,14.09
2024-02-23T05:36:02.865Z,14.07
2024-02-23T05:37:05.477Z,14.11
2024-02-23T05:38:08.108Z,14.10
2024-02-23T05:39:10.898Z,14.15
2024-02-23T05:40:13.644Z,14.19
2024-02-23T05:41:17.050Z,14.20
2024-02-23T05:42:19.730Z,14.11
2024-02-23T05:43:22.325Z,14.22
2024-02-23T05:44:24.971Z,14.10
2024-02-23T05:45:27.519Z,14.07
2024-02-23T05:46:30.028Z,14.07
2024-02-23T05:47:32.922Z,14.05
2024-02-23T05:48:35.738Z,13.98
2024-02-23T05:49:38.362Z,14.02
2024-02-23T05:50:41.019Z,14.03
2024-02-23T05:51:43.638Z,14.03
2024-02-23T05:52:46.240Z,14.06
2024-02-23T05:53:48.815Z,14.02
2024-02-23T05:54:52.987Z,14.04
2024-02-23T05:55:55.582Z,13.98
2024-02-23T05:56:58.105Z,14.01
2024-02-23T05:58:00.773Z,14.05
2024-02-23T05:59:03.590Z,14.05
2024-02-23T06:00:08.578Z,14.00
2024-02-23T06:01:17.015Z,14.02
2024-02-23T06:02:19.784Z,13.98
2024-02-23T06:03:22.321Z,14.01
2024-02-23T06:04:25.849Z,13.95
2024-02-23T06:05:29.455Z,13.93
2024-02-23T06:06:32.766Z,13.92
2024-02-23T06:07:36.134Z,14.02
2024-02-23T06:08:39.098Z,14.06
2024-02-23T06:09:41.733Z,14.13
2024-02-23T06:10:44.559Z,14.11
2024-02-23T06:11:47.999Z,14.15
2024-02-23T06:12:52.670Z,14.15
2024-02-23T06:13:56.918Z,14.13
2024-02-23T06:14:59.930Z,14.14
2024-02-23T06:16:02.470Z,14.06
2024-02-23T06:17:05.278Z,14.07
2024-02-23T06:18:08.033Z,14.09
2024-02-23T06:19:10.705Z,14.01
2024-02-23T06:20:13.754Z,14.05
2024-02-23T06:21:18.668Z,14.03
2024-02-23T06:22:23.347Z,14.03
2024-02-23T06:23:26.050Z,14.04
2024-02-23T06:24:28.708Z,14.01
2024-02-23T06:25:32.504Z,14.05
2024-02-23T06:26:35.839Z,14.15
2024-02-23T06:27:38.574Z,14.25
2024-02-23T06:28:44.408Z,14.39
2024-02-23T06:29:48.259Z,14.35
2024-02-23T06:30:50.906Z,14.28
2024-02-23T06:31:53.496Z,14.11
2024-02-23T06:32:56.163Z,14.17
2024-02-23T06:33:58.929Z,14.09
2024-02-23T06:35:01.881Z,14.08
2024-02-23T06:36:06.236Z,14.19
2024-02-23T06:37:08.869Z,14.21
2024-02-23T06:38:11.505Z,14.30
2024-02-23T06:39:14.228Z,14.34
2024-02-23T06:40:16.955Z,14.36
2024-02-23T06:41:19.761Z,14.26
2024-02-23T06:42:22.621Z,14.29
2024-02-23T06:43:25.263Z,14.31
2024-02-23T06:44:27.854Z,14.27
2024-02-23T06:45:30.398Z,14.20
2024-02-23T06:46:33.000Z,14.19
2024-02-23T06:47:35.736Z,14.24
2024-02-23T06:48:38.883Z,14.29
2024-02-23T06:49:44.971Z,14.36
2024-02-23T06:50:47.930Z,14.40
2024-02-23T06:51:50.594Z,14.47
2024-02-23T06:52:53.150Z,14.54
2024-02-23T06:53:57.774Z,14.62
2024-02-23T06:55:00.657Z,14.60
2024-02-23T06:56:03.495Z,14.55
2024-02-23T06:57:06.071Z,14.65
2024-02-23T06:58:08.795Z,14.57
2024-02-23T06:59:11.357Z,14.67
2024-02-23T07:00:14.949Z,14.79
2024-02-23T07:01:17.589Z,14.85
2024-02-23T07:02:20.580Z,14.83
2024-02-23T07:03:23.381Z,14.86
2024-02-23T07:04:26.724Z,14.94
2024-02-23T07:05:29.417Z,14.99
2024-02-23T07:06:33.227Z,14.93
2024-02-23T07:07:36.411Z,14.95
2024-02-23T07:08:39.121Z,14.96
2024-02-23T07:09:41.765Z,14.79
2024-02-23T07:10:44.507Z,14.92
2024-02-23T07:11:47.229Z,14.90
2024-02-23T07:12:49.904Z,14.97
2024-02-23T07:13:53.414Z,14.85
2024-02-23T07:14:59.236Z,14.98
2024-02-23T07:16:02.290Z,15.09
2024-02-23T07:17:05.150Z,15.10
2024-02-23T07:18:09.864Z,15.20
2024-02-23T07:19:13.999Z,15.30
2024-02-23T07:20:17.254Z,15.35
2024-02-23T07:21:20.151Z,15.36
2024-02-23T07:22:22.862Z,15.41
2024-02-23T07:23:25.476Z,15.43
2024-02-23T07:24:28.179Z,15.45
2024-02-23T07:25:30.706Z,15.36
2024-02-23T07:26:33.418Z,15.39
2024-02-23T07:27:36.422Z,15.49
2024-02-23T07:28:38.978Z,15.54
2024-02-23T07:29:41.697Z,15.62
2024-02-23T07:30:44.432Z,15.56
2024-02-23T07:31:46.985Z,15.46
2024-02-23T07:32:52.434Z,15.51
2024-02-23T07:33:56.401Z,15.53
2024-02-23T07:34:59.126Z,15.66
2024-02-23T07:36:01.682Z,15.74
2024-02-23T07:37:05.010Z,15.82
2024-02-23T07:38:07.583Z,15.82
2024-02-23T07:39:10.354Z,15.84
2024-02-23T07:40:13.973Z,15.83
2024-02-23T07:41:19.005Z,15.85
2024-02-23T07:42:21.818Z,15.93
2024-02-23T07:43:25.679Z,16.00
2024-02-23T07:44:28.402Z,15.93
2024-02-23T07:45:31.126Z,16.08
2024-02-23T07:46:33.830Z,16.02
2024-02-23T07:47:36.916Z,15.99
2024-02-23T07:48:39.657Z,15.97
2024-02-23T07:49:42.335Z,16.00
2024-02-23T07:50:45.062Z,15.97
2024-02-23T07:51:47.621Z,15.99
2024-02-23T07:52:50.347Z,16.01
2024-02-23T07:53:52.930Z,16.06
2024-02-23T07:54:55.809Z,16.10
2024-02-23T07:56:00.642Z,16.16
2024-02-23T07:57:05.679Z,16.21
2024-02-23T07:58:08.245Z,16.20
2024-02-23T07:59:11.333Z,16.24
2024-02-23T08:00:14.192Z,16.26
2024-02-23T08:01:16.979Z,16.29
2024-02-23T08:02:19.625Z,16.22
2024-02-23T08:03:22.304Z,16.24
2024-02-23T08:04:24.994Z,16.04
2024-02-23T08:05:27.645Z,16.11
2024-02-23T08:06:30.777Z,16.08
2024-02-23T08:07:33.510Z,16.08
2024-02-23T08:08:37.262Z,16.03
2024-02-23T08:10:14.141Z,16.00
2024-02-23T08:11:16.911Z,15.99
2024-02-23T08:12:19.582Z,16.10
2024-02-23T08:13:22.275Z,16.16
2024-02-23T08:14:24.816Z,16.21
2024-02-23T08:15:27.401Z,16.32
2024-02-23T08:16:30.267Z,16.32
2024-02-23T08:17:33.136Z,16.29
2024-02-23T08:18:35.925Z,16.37
2024-02-23T08:19:38.590Z,16.43
2024-02-23T08:20:42.383Z,16.46
2024-02-23T08:21:45.187Z,16.55
2024-02-23T08:22:48.586Z,16.53
2024-02-23T08:23:58.088Z,16.56
2024-02-23T08:25:27.174Z,16.56
2024-02-23T08:26:56.104Z,16.58
2024-02-23T08:28:18.155Z,16.61
2024-02-23T08:29:47.131Z,16.56
2024-02-23T08:31:02.872Z,16.47
2024-02-23T08:32:19.892Z,16.56
2024-02-23T08:33:35.248Z,16.47
2024-02-23T08:34:51.266Z,16.57
2024-02-23T08:36:07.217Z,16.65
2024-02-23T08:37:23.159Z,16.69
2024-02-23T08:38:47.178Z,16.71
2024-02-23T08:39:55.794Z,16.81
2024-02-23T08:41:18.211Z,16.82
2024-02-23T08:42:28.108Z,16.78
2024-02-23T08:43:51.231Z,16.87
2024-02-23T08:44:55.694Z,16.92
2024-02-23T08:46:02.164Z,17.00
2024-02-23T08:47:08.138Z,17.08
2024-02-23T08:48:11.058Z,16.99
2024-02-23T08:49:13.812Z,17.06
2024-02-23T08:50:16.777Z,17.08
2024-02-23T08:51:19.532Z,17.04
2024-02-23T08:52:22.241Z,17.21
2024-02-23T08:53:24.902Z,17.28
2024-02-23T08:54:27.705Z,17.34
2024-02-23T08:55:30.306Z,17.30
2024-02-23T08:56:33.596Z,17.34
2024-02-23T08:57:36.549Z,17.49
2024-02-23T08:58:39.706Z,17.57
2024-02-23T08:59:42.243Z,17.67
2024-02-23T09:00:44.912Z,17.72
2024-02-23T09:01:48.004Z,17.73
2024-02-23T09:02:51.256Z,17.60
2024-02-23T09:03:55.814Z,17.64
2024-02-23T09:04:58.863Z,17.51
2024-02-23T09:06:01.862Z,17.64
2024-02-23T09:07:05.036Z,17.46
2024-02-23T09:08:08.053Z,17.59
2024-02-23T09:09:10.798Z,17.54
2024-02-23T09:10:13.716Z,17.64
2024-02-23T09:11:16.620Z,17.44
2024-02-23T09:12:20.044Z,17.48
2024-02-23T09:13:22.749Z,17.28
2024-02-23T09:14:26.675Z,17.11
2024-02-23T09:15:29.398Z,17.11
2024-02-23T09:16:31.954Z,17.20
2024-02-23T09:17:34.827Z,17.19
2024-02-23T09:18:37.786Z,17.28
2024-02-23T09:19:40.622Z,17.15
2024-02-23T09:20:43.336Z,17.14
2024-02-23T09:21:46.730Z,17.33
2024-02-23T09:22:50.198Z,17.28
2024-02-23T09:23:52.871Z,17.25
2024-02-23T09:24:57.448Z,17.26
2024-02-23T09:26:01.207Z,17.38
2024-02-23T09:27:04.448Z,17.51
2024-02-23T09:28:07.345Z,17.66
2024-02-23T09:29:10.081Z,17.60
2024-02-23T09:30:15.289Z,17.65
2024-02-23T09:31:18.100Z,17.67
2024-02-23T09:32:20.805Z,17.66
2024-02-23T09:33:23.565Z,17.77
2024-02-23T09:34:26.591Z,17.91
2024-02-23T09:35:29.349Z,18.01
2024-02-23T09:36:32.017Z,18.04
2024-02-23T09:37:34.734Z,18.17
2024-02-23T09:38:37.371Z,18.27
2024-02-23T09:39:39.950Z,18.45
2024-02-23T09:40:42.507Z,18.47
2024-02-23T09:41:45.222Z,18.52
2024-02-23T09:42:58.379Z,18.46
2024-02-23T09:44:04.028Z,18.30
2024-02-23T09:45:10.114Z,18.48
2024-02-23T09:46:13.712Z,18.69
2024-02-23T09:47:16.516Z,18.95
2024-02-23T09:48:21.945Z,18.86
2024-02-23T09:49:24.668Z,18.92
2024-02-23T09:50:30.572Z,19.07
2024-02-23T09:51:35.311Z,19.02
2024-02-23T09:52:38.074Z,19.12
2024-02-23T09:53:40.885Z,19.09
2024-02-23T09:54:44.507Z,18.95
2024-02-23T09:55:49.399Z,18.80
2024-02-23T09:56:53.345Z,18.77
2024-02-23T09:58:01.109Z,18.68
2024-02-23T09:59:05.656Z,18.73
2024-02-23T10:00:10.458Z,18.90
2024-02-23T10:01:28.846Z,18.88
2024-02-23T10:02:32.852Z,18.84
2024-02-23T10:03:38.333Z,19.01
2024-02-23T10:04:44.545Z,19.12
2024-02-23T10:05:47.430Z,18.98
2024-02-23T10:06:50.124Z,18.98
2024-02-23T10:07:55.869Z,18.93
2024-02-23T10:08:58.639Z,18.80
2024-02-23T10:10:02.576Z,18.69
2024-02-23T10:11:06.575Z,18.74
2024-02-23T10:12:09.693Z,18.51
2024-02-23T10:13:12.560Z,18.69
2024-02-23T10:14:15.129Z,18.65
2024-02-23T10:15:17.776Z,18.89
2024-02-23T10:16:23.853Z,18.99
2024-02-23T10:17:27.132Z,18.92
2024-02-23T10:18:29.745Z,18.86
2024-02-23T10:19:32.768Z,18.94
2024-02-23T10:20:36.456Z,18.79
2024-02-23T10:21:39.337Z,18.80
2024-02-23T10:22:41.873Z,18.89
2024-02-23T10:23:48.530Z,18.83
2024-02-23T10:24:51.300Z,18.79
2024-02-23T10:25:53.924Z,18.69
2024-02-23T10:26:56.542Z,18.52
2024-02-23T10:28:01.064Z,18.51
2024-02-23T10:29:04.397Z,18.56
2024-02-23T10:30:08.019Z,18.66
2024-02-23T10:31:13.674Z,18.53
2024-02-23T10:32:17.087Z,18.42
2024-02-23T10:33:27.177Z,17.96
2024-02-23T10:34:32.475Z,17.78
2024-02-23T10:35:41.802Z,17.74
2024-02-23T10:36:46.540Z,17.80
2024-02-23T10:37:54.623Z,17.86
2024-02-23T10:39:04.262Z,18.01
2024-02-23T10:40:10.452Z,17.98
2024-02-23T10:41:15.342Z,18.01
2024-02-23T10:42:25.482Z,17.92
2024-02-23T10:43:56.974Z,17.91
2024-02-23T10:45:02.504Z,17.65
2024-02-23T10:46:09.083Z,17.93
2024-02-23T10:47:13.491Z,17.91
2024-02-23T10:48:17.418Z,18.04
2024-02-23T10:49:24.378Z,18.11
2024-02-23T10:50:27.788Z,18.15
2024-02-23T10:51:32.366Z,18.21
2024-02-23T10:52:36.266Z,17.97
2024-02-23T10:53:41.721Z,18.10
2024-02-23T10:54:47.688Z,18.17
2024-02-23T10:55:59.198Z,18.02
2024-02-23T10:57:03.432Z,18.17
2024-02-23T10:58:12.968Z,18.24
2024-02-23T10:59:19.403Z,18.26
2024-02-23T11:00:25.508Z,18.24
2024-02-23T11:01:29.441Z,18.30
2024-02-23T11:02:37.083Z,18.26
2024-02-23T11:03:44.301Z,18.24
2024-02-23T11:04:52.255Z,18.35
2024-02-23T11:05:55.807Z,18.43
2024-02-23T11:07:00.369Z,18.52
2024-02-23T11:08:08.446Z,18.70
2024-02-23T11:09:14.493Z,18.72
2024-02-23T11:10:18.007Z,18.93
2024-02-23T11:11:20.754Z,18.92
2024-02-23T11:12:25.818Z,19.11
2024-02-23T11:13:39.816Z,19.23
2024-02-23T11:14:45.792Z,19.33
2024-02-23T11:15:50.155Z,19.35
2024-02-23T11:16:53.184Z,19.29
2024-02-23T11:17:57.359Z,19.38
2024-02-23T11:19:12.616Z,19.40
2024-02-23T11:20:29.516Z,19.41
2024-02-23T11:21:40.243Z,19.36
2024-02-23T11:22:42.991Z,19.32
2024-02-23T11:23:52.416Z,19.50
2024-02-23T11:24:56.108Z,19.56
2024-02-23T11:26:04.849Z,19.37
2024-02-23T11:27:14.036Z,19.63
2024-02-23T11:28:25.972Z,19.79
2024-02-23T11:29:30.703Z,19.80
2024-02-23T11:30:34.128Z,19.90
2024-02-23T11:31:38.941Z,20.05
2024-02-23T11:32:44.886Z,19.93
2024-02-23T11:33:53.499Z,19.58
2024-02-23T11:34:58.115Z,19.81
2024-02-23T11:36:10.332Z,19.84
2024-02-23T11:37:14.357Z,19.99
2024-02-23T11:38:19.178Z,20.05
2024-02-23T11:39:22.899Z,20.15
2024-02-23T11:40:27.191Z,20.25
2024-02-23T11:41:30.781Z,20.21
2024-02-23T11:42:36.847Z,20.08
2024-02-23T11:43:40.922Z,20.13
2024-02-23T11:44:43.463Z,20.24
2024-02-23T11:45:48.608Z,20.30
2024-02-23T11:46:51.380Z,20.40
2024-02-23T11:47:54.082Z,20.02
2024-02-23T11:48:57.025Z,19.82
2024-02-23T11:49:59.910Z,19.75
2024-02-23T11:51:02.645Z,19.85
2024-02-23T11:52:05.660Z,19.95
2024-02-23T11:53:08.305Z,19.90
2024-02-23T11:54:11.070Z,20.04
2024-02-23T11:55:15.987Z,20.00
2024-02-23T11:56:21.130Z,19.85
2024-02-23T11:57:24.220Z,19.84
2024-02-23T11:58:27.275Z,20.02
2024-02-23T11:59:29.982Z,19.99
2024-02-23T12:00:33.271Z,20.01
2024-02-23T12:01:35.875Z,19.99
2024-02-23T12:02:38.493Z,19.82
2024-02-23T12:03:45.067Z,19.62
2024-02-23T12:04:47.741Z,19.59
2024-02-23T12:05:52.249Z,19.56
2024-02-23T12:06:54.977Z,19.50
2024-02-23T12:07:59.689Z,19.34
2024-02-23T12:09:03.047Z,19.30
2024-02-23T12:10:07.279Z,19.39
2024-02-23T12:11:11.092Z,19.45
2024-02-23T12:12:14.502Z,19.55
2024-02-23T12:13:17.197Z,19.70
2024-02-23T12:14:20.020Z,19.77
2024-02-23T12:15:22.783Z,19.70
2024-02-23T12:16:26.791Z,19.73
2024-02-23T12:17:30.479Z,19.83
2024-02-23T12:18:37.936Z,19.69
2024-02-23T12:19:43.918Z,19.50
2024-02-23T12:20:49.297Z,19.56
2024-02-23T12:21:51.974Z,19.39
2024-02-23T12:22:57.692Z,19.34
2024-02-23T12:24:00.496Z,19.24
2024-02-23T12:25:04.365Z,19.02
2024-02-23T12:26:08.406Z,19.30
2024-02-23T12:27:11.081Z,19.20
2024-02-23T12:28:19.541Z,19.39
2024-02-23T12:29:22.492Z,19.50
2024-02-23T12:30:25.264Z,19.49
2024-02-23T12:31:27.979Z,19.56
2024-02-23T12:32:30.691Z,19.34
2024-02-23T12:33:38.892Z,19.17
2024-02-23T12:34:45.213Z,19.32
2024-02-23T12:35:47.877Z,19.24
2024-02-23T12:36:51.161Z,19.28
2024-02-23T12:37:53.866Z,19.28
2024-02-23T12:38:56.792Z,19.24
2024-02-23T12:39:59.317Z,19.10
2024-02-23T12:41:04.076Z,19.06
2024-02-23T12:42:06.915Z,18.82
2024-02-23T12:43:09.480Z,18.80
2024-02-23T12:44:12.156Z,18.71
2024-02-23T12:45:16.099Z,18.75
2024-02-23T12:46:18.787Z,18.91
2024-02-23T12:47:21.504Z,19.02
2024-02-23T12:48:24.330Z,19.11
2024-02-23T12:49:27.004Z,18.82
2024-02-23T12:50:32.319Z,19.02
2024-02-23T12:51:35.057Z,18.95
2024-02-23T12:52:37.860Z,19.09
2024-02-23T12:53:42.917Z,19.08
2024-02-23T12:54:45.684Z,19.17
2024-02-23T12:55:49.907Z,19.33
2024-02-23T12:56:52.518Z,19.45
2024-02-23T12:57:55.185Z,19.41
2024-02-23T12:58:58.604Z,19.40
2024-02-23T13:00:01.285Z,19.37
2024-02-23T13:01:04.537Z,19.42
2024-02-23T13:02:10.458Z,19.58
2024-02-23T13:03:13.205Z,19.52
2024-02-23T13:04:15.967Z,19.57
2024-02-23T13:05:19.762Z,19.30
2024-02-23T13:06:22.768Z,19.41
2024-02-23T13:07:27.159Z,19.50
2024-02-23T13:08:31.334Z,19.30
2024-02-23T13:09:33.892Z,19.54
2024-02-23T13:10:36.410Z,19.53
2024-02-23T13:11:40.171Z,19.49
2024-02-23T13:12:42.939Z,19.47
2024-02-23T13:13:45.537Z,19.62
2024-02-23T13:14:48.208Z,19.70
2024-02-23T13:15:53.557Z,19.72
2024-02-23T13:16:56.168Z,19.52
2024-02-23T13:17:58.909Z,19.53
2024-02-23T13:19:03.028Z,19.65
2024-02-23T13:20:11.618Z,19.62
2024-02-23T13:21:16.160Z,19.50
2024-02-23T13:22:20.609Z,19.32
2024-02-23T13:23:23.438Z,19.39
2024-02-23T13:24:25.965Z,19.34
2024-02-23T13:25:29.726Z,19.27
2024-02-23T13:26:32.481Z,19.17
2024-02-23T13:27:35.202Z,19.29
2024-02-23T13:28:38.564Z,19.37
2024-02-23T13:29:41.184Z,19.38
2024-02-23T13:30:43.951Z,19.28
2024-02-23T13:31:46.480Z,19.29
2024-02-23T13:32:49.320Z,19.04
2024-02-23T13:33:52.372Z,19.13
2024-02-23T13:34:55.393Z,18.99
2024-02-23T13:35:59.295Z,18.85
2024-02-23T13:37:01.837Z,18.92
2024-02-23T13:38:04.816Z,18.95
2024-02-23T13:39:07.465Z,18.91
2024-02-23T13:40:10.882Z,18.75
2024-02-23T13:41:13.583Z,18.80
2024-02-23T13:42:16.213Z,18.76
2024-02-23T13:43:18.784Z,18.80